createdAt,value
2023-01-09T00:08:25.053Z,9.45
2023-01-09T00:18:28.760Z,9.43
2023-01-09T00:28:34.553Z,9.30
2023-01-09T00:38:38.700Z,9.34
2023-01-09T00:48:46.888Z,9.47
2023-01-09T00:58:51.089Z,9.32
2023-01-09T01:08:57.082Z,9.28
2023-01-09T01:19:00.730Z,9.16
2023-01-09T01:29:05.683Z,9.12
2023-01-09T01:39:09.347Z,9.26
2023-01-09T01:49:20.314Z,9.20
2023-01-09T01:59:27.691Z,9.28
2023-01-09T02:09:32.825Z,9.50
2023-01-09T02:20:21.546Z,9.66
2023-01-09T02:30:38.324Z,9.33
2023-01-09T02:40:51.535Z,9.37
2023-01-09T02:51:11.928Z,9.30
2023-01-09T03:01:28.325Z,9.08
2023-01-09T03:11:41.487Z,8.97
2023-01-09T03:21:45.987Z,8.91
2023-01-09T03:31:51.720Z,9.05
2023-01-09T03:41:55.488Z,8.85
2023-01-09T03:52:00.429Z,9.02
2023-01-09T04:02:04.359Z,8.92
2023-01-09T04:12:09.668Z,8.65
2023-01-09T04:22:13.309Z,8.48
2023-01-09T04:32:18.294Z,8.58
2023-01-09T04:42:21.921Z,8.75
2023-01-09T04:52:27.422Z,8.66
2023-01-09T05:02:31.058Z,8.55
2023-01-09T05:12:36.386Z,8.33
2023-01-09T05:22:40.210Z,8.47
2023-01-09T05:32:45.554Z,8.33
2023-01-09T05:42:49.208Z,8.20
2023-01-09T05:53:00.309Z,8.44
2023-01-09T06:03:04.176Z,8.27
2023-01-09T06:13:09.249Z,8.21
2023-01-09T06:23:13.764Z,8.08
2023-01-09T06:33:19.139Z,7.86
2023-01-09T06:43:22.791Z,8.09
2023-01-09T06:53:28.254Z,8.38
2023-01-09T07:03:33.711Z,8.35
2023-01-09T07:13:38.998Z,8.41
2023-01-09T07:23:42.676Z,8.53
2023-01-09T07:33:47.730Z,8.58
2023-01-09T07:43:51.375Z,8.51
2023-01-09T07:53:56.571Z,8.59
2023-01-09T08:04:00.610Z,8.51
2023-01-09T08:14:05.742Z,8.69
2023-01-09T08:24:11.049Z,8.68
2023-01-09T08:34:16.088Z,8.87
2023-01-09T08:44:37.345Z,8.89
2023-01-09T08:54:42.365Z,9.00
2023-01-09T09:04:46.213Z,8.94
2023-01-09T09:15:09.141Z,9.11
2023-01-09T09:25:12.890Z,9.06
2023-01-09T09:35:18.845Z,9.27
2023-01-09T09:45:36.122Z,9.39
2023-01-09T09:55:43.259Z,9.63
2023-01-09T10:05:49.546Z,9.73
2023-01-09T10:16:05.469Z,9.64
2023-01-09T10:26:18.164Z,9.77
2023-01-09T10:36:59.199Z,9.84
2023-01-09T10:47:05.707Z,9.50
2023-01-09T10:57:16.653Z,9.45
2023-01-09T11:07:24.546Z,9.74
2023-01-09T11:17:30.626Z,9.94
2023-01-09T11:27:34.359Z,10.32
2023-01-09T11:37:39.541Z,10.15
2023-01-09T11:47:44.698Z,10.44
2023-01-09T11:57:53.056Z,11.36
2023-01-09T12:08:25.384Z,11.31
2023-01-09T12:18:56.303Z,11.18
2023-01-09T12:29:19.294Z,10.72
2023-01-09T12:39:42.956Z,10.09
2023-01-09T12:49:55.832Z,10.04
2023-01-09T13:00:07.685Z,9.96
2023-01-09T13:10:24.211Z,10.02
2023-01-09T13:20:38.413Z,10.10
2023-01-09T13:31:28.668Z,9.84
2023-01-09T13:41:51.295Z,9.81
2023-01-09T13:52:04.954Z,9.95
2023-01-09T14:02:56.421Z,10.03
2023-01-09T14:13:00.422Z,10.08
2023-01-09T14:23:31.533Z,10.17
2023-01-09T14:33:32.901Z,10.00
2023-01-09T14:44:00.144Z,9.69
2023-01-09T14:54:15.897Z,9.64
2023-01-09T15:04:31.675Z,9.50
2023-01-09T15:14:39.988Z,9.45
2023-01-09T15:24:44.979Z,9.43
2023-01-09T15:34:50.307Z,9.18
2023-01-09T15:44:55.629Z,8.98
2023-01-09T15:54:59.383Z,8.96
2023-01-09T16:05:09.446Z,8.98
2023-01-09T16:15:18.622Z,8.98
2023-01-09T16:25:31.104Z,8.92
2023-01-09T16:35:34.934Z,8.98
2023-01-09T16:45:42.142Z,8.79
2023-01-09T16:55:47.129Z,8.72
2023-01-09T17:05:55.113Z,8.82
2023-01-09T17:16:00.484Z,8.62
2023-01-09T17:26:23.359Z,8.61
2023-01-09T17:36:32.518Z,8.41
2023-01-09T17:46:41.031Z,8.38
2023-01-09T17:56:48.821Z,8.42
2023-01-09T18:06:54.575Z,8.09
2023-01-09T18:16:58.640Z,8.12
2023-01-09T18:27:03.908Z,7.98
2023-01-09T18:37:07.700Z,8.18
2023-01-09T18:47:12.752Z,8.12
2023-01-09T18:57:17.106Z,8.05
2023-01-09T19:07:22.217Z,7.98
2023-01-09T19:17:25.914Z,7.79
2023-01-09T19:27:31.644Z,7.64
2023-01-09T19:37:37.176Z,7.54
2023-01-09T19:47:47.461Z,7.46
2023-01-09T19:57:51.237Z,7.31
2023-01-09T20:07:57.451Z,7.38
2023-01-09T20:18:02.029Z,7.42
2023-01-09T20:28:07.115Z,7.48
2023-01-09T20:38:11.326Z,7.50
2023-01-09T20:48:16.644Z,7.37
2023-01-09T20:58:20.334Z,7.11
2023-01-09T21:08:25.503Z,6.85
2023-01-09T21:18:29.528Z,6.70
2023-01-09T21:28:41.101Z,6.76
2023-01-09T21:38:45.768Z,6.74
2023-01-09T21:48:51.031Z,6.76
2023-01-09T21:58:54.851Z,7.07
2023-01-09T22:09:00.939Z,7.33
2023-01-09T22:19:04.853Z,7.21
2023-01-09T22:29:09.908Z,7.00
2023-01-09T22:39:16.940Z,6.80
2023-01-09T22:49:26.393Z,6.64
2023-01-09T22:59:32.328Z,6.70
2023-01-09T23:09:37.498Z,6.76
2023-01-09T23:19:41.301Z,6.89
2023-01-09T23:29:46.755Z,7.00
2023-01-09T23:39:50.449Z,7.09
2023-01-09T23:49:55.523Z,6.98
2023-01-09T23:59:59.177Z,6.73
